Time;durP1;ratioP1;P1;durP2;ratioP2;P2;SDS_P1;SDS_P2;PMS_P1;PMS_P2;Temp;Humidity;BMP_temperature;BMP_pressure;BME280_temperature;BME280_humidity;BME280_pressure;Samples;Min_cycle;Max_cycle;Signal;HPM_P1;HPM_P2
2023/07/12 00:00:45;;;;;;;14.55;12.80;;;20.50;99.90;;;;;;5050665;28;20049;-87
2023/07/12 00:03:12;;;;;;;15.13;12.60;;;20.50;99.90;;;;;;5058543;28;20078;-87
2023/07/12 00:05:40;;;;;;;15.25;13.00;;;20.60;99.90;;;;;;5054309;28;20072;-87
2023/07/12 00:08:16;;;;;;;15.68;13.98;;;20.70;99.90;;;;;;5050993;28;20037;-89
2023/07/12 00:10:46;;;;;;;15.77;13.77;;;20.80;99.90;;;;;;5050535;28;20064;-86
2023/07/12 00:13:13;;;;;;;14.77;13.25;;;20.70;99.90;;;;;;5050403;28;20037;-86
2023/07/12 00:15:41;;;;;;;19.05;15.20;;;20.70;99.90;;;;;;5048197;28;20041;-87
2023/07/12 00:18:14;;;;;;;17.05;13.60;;;20.60;99.90;;;;;;5050039;28;20044;-88
2023/07/12 00:20:42;;;;;;;21.45;18.92;;;20.50;99.90;;;;;;5053907;28;20489;-88
2023/07/12 00:23:11;;;;;;;15.45;13.85;;;20.60;99.90;;;;;;5051563;28;20059;-87
2023/07/12 00:25:39;;;;;;;15.00;12.95;;;20.60;99.90;;;;;;5050805;28;20037;-87
2023/07/12 00:28:26;;;;;;;16.98;13.73;;;20.60;99.90;;;;;;5049720;28;20037;-87
2023/07/12 00:30:54;;;;;;;14.73;13.23;;;20.60;99.90;;;;;;5047436;28;20524;-87
2023/07/12 00:33:21;;;;;;;16.00;12.70;;;20.50;99.90;;;;;;5048820;28;20045;-87
2023/07/12 00:35:50;;;;;;;14.63;13.18;;;20.50;99.90;;;;;;5049381;28;20037;-86
2023/07/12 00:38:19;;;;;;;14.35;12.57;;;20.40;99.90;;;;;;5031217;28;20469;-86
2023/07/12 00:41:02;;;;;;;18.67;13.88;;;20.30;99.90;;;;;;5047847;28;20099;-87
2023/07/12 00:43:37;;;;;;;14.18;12.73;;;20.30;99.90;;;;;;5047857;28;20049;-88
2023/07/12 00:46:14;;;;;;;18.35;13.65;;;20.20;99.90;;;;;;5047626;28;20037;-87
2023/07/12 00:48:42;;;;;;;15.18;12.60;;;20.10;99.90;;;;;;5049072;28;20033;-86
2023/07/12 00:51:38;;;;;;;14.07;12.20;;;20.20;99.90;;;;;;5047417;28;20045;-87
2023/07/12 00:54:12;;;;;;;13.77;12.20;;;20.20;99.90;;;;;;5049375;28;20500;-88
2023/07/12 00:56:40;;;;;;;13.90;12.50;;;20.30;99.90;;;;;;5049056;28;20532;-86
2023/07/12 00:59:14;;;;;;;16.88;13.30;;;20.20;99.90;;;;;;5048372;28;20045;-88
2023/07/12 01:01:42;;;;;;;16.30;13.85;;;20.10;99.90;;;;;;5071749;28;20031;-87
2023/07/12 01:04:13;;;;;;;14.43;12.57;;;20.00;99.90;;;;;;5074305;28;20055;-89
2023/07/12 01:06:40;;;;;;;15.48;13.88;;;20.00;99.90;;;;;;5073349;28;20352;-89
2023/07/12 01:09:12;;;;;;;15.70;13.80;;;20.00;99.90;;;;;;5060044;28;20558;-87
2023/07/12 01:11:41;;;;;;;13.73;12.32;;;20.00;99.90;;;;;;5049011;28;20053;-88
2023/07/12 01:14:13;;;;;;;16.50;13.73;;;20.00;99.90;;;;;;5048060;28;20488;-87
2023/07/12 01:16:44;;;;;;;15.65;13.55;;;19.90;99.90;;;;;;5047807;28;20432;-87
2023/07/12 01:19:14;;;;;;;15.07;13.57;;;20.00;99.90;;;;;;5048947;28;20056;-87
2023/07/12 01:21:45;;;;;;;14.93;13.40;;;19.80;99.90;;;;;;5047646;28;20033;-88
2023/07/12 01:24:13;;;;;;;15.18;13.60;;;19.80;99.90;;;;;;5046300;28;20124;-86
2023/07/12 01:26:47;;;;;;;15.27;12.82;;;19.80;99.90;;;;;;5048806;28;20045;-87
2023/07/12 01:29:16;;;;;;;18.38;13.77;;;19.90;99.90;;;;;;5047620;28;20045;-87
2023/07/12 01:31:44;;;;;;;14.30;12.80;;;19.80;99.90;;;;;;5031017;28;20308;-88
2023/07/12 01:34:13;;;;;;;14.48;13.00;;;19.70;99.90;;;;;;5050373;28;20500;-87
2023/07/12 01:36:41;;;;;;;16.30;13.85;;;19.50;99.90;;;;;;5052252;28;20051;-85
2023/07/12 01:39:09;;;;;;;13.75;12.35;;;19.50;99.90;;;;;;5053424;28;20037;-86
2023/07/12 01:41:37;;;;;;;14.68;13.18;;;19.50;99.90;;;;;;5051721;28;20049;-86
2023/07/12 01:44:05;;;;;;;13.68;12.13;;;19.40;99.90;;;;;;5051396;28;20477;-87
2023/07/12 01:46:33;;;;;;;16.13;12.85;;;19.40;99.90;;;;;;5062452;28;20047;-87
2023/07/12 01:49:01;;;;;;;14.02;12.10;;;19.50;99.90;;;;;;5060347;28;20045;-87
2023/07/12 01:51:30;;;;;;;12.77;11.50;;;19.50;99.90;;;;;;5054668;28;20097;-84
2023/07/12 01:53:57;;;;;;;15.02;13.13;;;19.50;99.90;;;;;;5061963;28;20052;-86
2023/07/12 01:56:26;;;;;;;13.73;12.43;;;19.60;99.90;;;;;;5053080;28;20037;-85
2023/07/12 01:58:54;;;;;;;16.05;14.32;;;19.60;99.90;;;;;;5061828;28;20057;-87
2023/07/12 02:01:21;;;;;;;15.23;13.43;;;19.50;99.90;;;;;;5059501;28;20040;-87
2023/07/12 02:03:49;;;;;;;14.35;12.93;;;19.50;99.90;;;;;;5052302;28;20063;-86
2023/07/12 02:06:17;;;;;;;15.65;13.05;;;19.40;99.90;;;;;;5050835;28;20045;-86
2023/07/12 02:08:45;;;;;;;15.75;13.95;;;19.40;99.90;;;;;;5052150;28;20061;-87
2023/07/12 02:11:15;;;;;;;14.98;13.48;;;19.40;99.90;;;;;;5051446;28;20065;-85
2023/07/12 02:13:44;;;;;;;16.70;12.93;;;19.20;99.90;;;;;;5051202;28;20136;-86
2023/07/12 02:16:12;;;;;;;14.50;13.10;;;19.30;99.90;;;;;;5051915;28;20037;-86
2023/07/12 02:18:39;;;;;;;14.48;12.75;;;19.40;99.90;;;;;;5051001;28;20044;-86
2023/07/12 02:21:06;;;;;;;15.27;13.10;;;19.40;99.90;;;;;;5053755;28;20041;-85
2023/07/12 02:23:36;;;;;;;15.15;12.95;;;19.40;99.90;;;;;;5052287;28;20136;-87
2023/07/12 02:26:04;;;;;;;17.90;13.98;;;19.40;99.90;;;;;;5052735;28;20040;-87
2023/07/12 02:28:31;;;;;;;16.10;14.18;;;19.40;99.90;;;;;;5051363;28;20033;-86
2023/07/12 02:31:19;;;;;;;17.08;15.25;;;19.40;99.90;;;;;;5051292;28;20299;-86
2023/07/12 02:33:51;;;;;;;14.68;13.20;;;19.40;99.90;;;;;;5049965;28;20048;-86
2023/07/12 02:36:19;;;;;;;14.40;12.98;;;19.30;99.90;;;;;;5049728;28;20041;-85
2023/07/12 02:38:46;;;;;;;17.52;14.13;;;19.30;99.90;;;;;;5051089;28;20501;-88
2023/07/12 02:41:14;;;;;;;16.10;14.27;;;19.20;99.90;;;;;;5051624;28;20090;-85
2023/07/12 02:43:42;;;;;;;16.52;13.75;;;19.10;99.90;;;;;;5049870;28;20041;-86
2023/07/12 02:46:09;;;;;;;16.70;13.82;;;19.00;99.90;;;;;;5050528;28;20041;-87
2023/07/12 02:48:39;;;;;;;14.65;13.20;;;19.00;99.90;;;;;;5051771;28;20240;-86
2023/07/12 02:51:06;;;;;;;14.73;12.98;;;18.90;99.90;;;;;;5054337;28;20367;-87
2023/07/12 02:53:35;;;;;;;14.63;13.00;;;18.90;99.90;;;;;;5052500;28;20108;-87
2023/07/12 02:56:03;;;;;;;15.57;13.93;;;19.00;99.90;;;;;;5052331;28;20033;-86
2023/07/12 02:58:30;;;;;;;15.75;14.13;;;19.00;99.90;;;;;;5052519;28;20602;-87
2023/07/12 03:00:58;;;;;;;15.85;13.38;;;19.10;99.90;;;;;;5052148;28;20048;-86
2023/07/12 03:03:25;;;;;;;15.45;13.85;;;19.20;99.90;;;;;;5051417;28;20251;-87
2023/07/12 03:05:54;;;;;;;17.05;14.50;;;19.10;99.90;;;;;;5049539;28;20064;-87
2023/07/12 03:08:21;;;;;;;16.13;14.43;;;19.00;99.90;;;;;;5050799;28;20235;-88
2023/07/12 03:10:49;;;;;;;19.92;15.07;;;18.90;99.90;;;;;;5050542;28;20044;-87
2023/07/12 03:13:16;;;;;;;17.55;15.23;;;19.00;99.90;;;;;;5054479;28;20049;-86
2023/07/12 03:15:44;;;;;;;18.10;15.20;;;19.00;99.90;;;;;;5062952;28;20116;-85
2023/07/12 03:18:11;;;;;;;16.85;14.65;;;19.10;99.90;;;;;;5062452;28;20507;-86
2023/07/12 03:20:38;;;;;;;15.73;14.13;;;19.00;99.90;;;;;;5051385;28;20041;-86
2023/07/12 03:23:07;;;;;;;17.35;14.85;;;19.00;99.90;;;;;;5050733;28;20045;-86
2023/07/12 03:25:35;;;;;;;16.10;14.40;;;18.90;99.90;;;;;;5051095;28;20120;-87
2023/07/12 03:28:02;;;;;;;16.45;14.85;;;18.90;99.90;;;;;;5050390;28;20044;-87
2023/07/12 03:30:30;;;;;;;16.08;14.32;;;18.90;99.90;;;;;;5048658;28;20295;-85
2023/07/12 03:32:57;;;;;;;17.17;15.48;;;19.00;99.90;;;;;;5050539;28;20041;-85
2023/07/12 03:35:25;;;;;;;16.83;15.10;;;18.90;99.90;;;;;;5050751;28;20047;-84
2023/07/12 03:37:52;;;;;;;14.98;13.48;;;18.90;99.90;;;;;;5061078;28;20061;-84
2023/07/12 03:40:21;;;;;;;14.95;13.10;;;19.00;99.90;;;;;;5059301;28;20041;-85
2023/07/12 03:42:49;;;;;;;17.10;13.10;;;19.10;99.90;;;;;;5050451;28;20065;-86
2023/07/12 03:45:16;;;;;;;14.05;12.32;;;19.30;99.90;;;;;;5050112;28;20052;-86
2023/07/12 03:47:43;;;;;;;17.27;13.50;;;19.30;99.90;;;;;;5051324;28;20055;-86
2023/07/12 03:50:11;;;;;;;14.07;12.68;;;19.40;99.90;;;;;;5051579;28;20068;-85
2023/07/12 03:52:38;;;;;;;14.07;12.68;;;19.40;99.90;;;;;;5050869;28;20041;-86
2023/07/12 03:55:07;;;;;;;14.90;12.93;;;19.30;99.90;;;;;;5049932;28;20052;-86
2023/07/12 03:57:41;;;;;;;14.00;12.60;;;19.40;99.90;;;;;;5048795;28;20044;-84
2023/07/12 04:00:09;;;;;;;14.30;12.48;;;19.60;99.90;;;;;;5049769;28;20041;-85
2023/07/12 04:02:40;;;;;;;15.55;12.65;;;20.00;99.90;;;;;;5049778;28;20493;-86
2023/07/12 04:05:08;;;;;;;12.90;10.93;;;20.60;99.90;;;;;;5049746;28;20041;-87
2023/07/12 04:07:35;;;;;;;15.80;10.65;;;21.40;99.90;;;;;;5050955;28;20489;-86
2023/07/12 04:10:03;;;;;;;11.32;10.10;;;22.10;99.90;;;;;;5049531;28;20057;-86
2023/07/12 04:12:31;;;;;;;14.82;10.32;;;22.60;99.90;;;;;;5050164;28;20037;-86
2023/07/12 04:15:00;;;;;;;13.50;9.52;;;23.00;99.90;;;;;;5074155;28;20051;-85
2023/07/12 04:17:28;;;;;;;11.30;10.10;;;23.20;99.90;;;;;;5075101;28;20047;-85
2023/07/12 04:19:55;;;;;;;11.32;9.93;;;23.30;99.90;;;;;;5072837;28;20096;-85
2023/07/12 04:22:23;;;;;;;13.93;9.77;;;23.90;99.90;;;;;;5058231;28;20090;-84
2023/07/12 04:24:51;;;;;;;17.02;10.38;;;24.40;99.90;;;;;;5075200;28;20044;-85
2023/07/12 04:27:19;;;;;;;15.32;11.25;;;24.70;99.90;;;;;;5061479;28;20060;-86
2023/07/12 04:29:47;;;;;;;12.18;10.10;;;25.00;99.90;;;;;;5061065;28;20037;-85
2023/07/12 04:32:17;;;;;;;12.75;9.27;;;25.90;99.90;;;;;;5058711;28;20037;-85
2023/07/12 04:34:47;;;;;;;11.40;9.13;;;26.70;99.90;;;;;;5052925;28;20052;-87
2023/07/12 04:37:15;;;;;;;12.85;8.75;;;27.50;99.90;;;;;;5049676;28;20041;-87
2023/07/12 04:39:42;;;;;;;16.88;9.18;;;28.20;99.90;;;;;;5048238;22;20038;-73
2023/07/12 04:42:10;;;;;;;10.35;8.85;;;28.70;99.90;;;;;;5029879;28;20041;-77
2023/07/12 04:44:37;;;;;;;10.43;9.32;;;28.90;99.90;;;;;;5033987;28;20045;-75
2023/07/12 04:47:06;;;;;;;14.02;9.23;;;28.70;99.90;;;;;;5041190;28;20047;-77
2023/07/12 04:49:35;;;;;;;11.82;10.07;;;29.80;99.90;;;;;;5044689;28;20045;-76
2023/07/12 04:52:05;;;;;;;18.77;12.40;;;30.80;99.90;;;;;;5038814;28;20129;-76
2023/07/12 04:54:35;;;;;;;11.80;8.88;;;31.60;99.90;;;;;;5030234;28;20046;-75
2023/07/12 04:57:02;;;;;;;10.63;8.82;;;31.70;99.90;;;;;;5029804;28;20065;-75
2023/07/12 04:59:29;;;;;;;10.60;9.25;;;32.40;99.90;;;;;;5028380;28;20041;-76
2023/07/12 05:01:57;;;;;;;15.82;9.80;;;33.00;99.90;;;;;;5029157;28;20038;-76
2023/07/12 05:04:24;;;;;;;13.25;10.13;;;33.10;99.90;;;;;;5030042;28;20043;-76
2023/07/12 05:06:53;;;;;;;10.02;9.02;;;33.60;99.90;;;;;;5029830;28;20071;-75
2023/07/12 05:09:21;;;;;;;12.40;9.48;;;33.30;99.90;;;;;;5030416;28;20073;-77
2023/07/12 05:11:51;;;;;;;11.00;9.10;;;33.40;99.90;;;;;;5033598;28;20109;-78
2023/07/12 05:14:19;;;;;;;13.98;9.57;;;33.40;99.90;;;;;;5033588;28;20084;-76
2023/07/12 05:16:46;;;;;;;11.88;10.30;;;33.30;99.90;;;;;;5038595;28;20087;-75
2023/07/12 05:19:13;;;;;;;11.68;9.55;;;33.80;99.90;;;;;;5040960;28;20179;-77
2023/07/12 05:21:41;;;;;;;14.40;9.98;;;34.50;99.90;;;;;;5036568;28;20049;-74
2023/07/12 05:24:10;;;;;;;16.05;9.48;;;35.20;99.90;;;;;;5036693;28;20046;-78
2023/07/12 05:26:37;;;;;;;15.85;9.25;;;35.80;99.90;;;;;;5042757;28;20133;-76
2023/07/12 05:29:04;;;;;;;13.93;9.80;;;35.50;99.90;;;;;;5032495;28;20046;-76
2023/07/12 05:31:32;;;;;;;10.95;9.85;;;34.40;99.90;;;;;;5028239;28;20037;-77
2023/07/12 05:34:01;;;;;;;12.77;10.45;;;34.50;99.90;;;;;;5029116;28;20506;-77
2023/07/12 05:36:28;;;;;;;16.00;9.38;;;34.50;99.90;;;;;;5029536;28;20132;-76
2023/07/12 05:38:56;;;;;;;12.93;9.35;;;33.90;99.90;;;;;;5029125;28;20065;-78
2023/07/12 05:41:25;;;;;;;11.35;9.70;;;33.60;99.90;;;;;;5030921;28;20056;-77
2023/07/12 05:43:53;;;;;;;15.18;13.63;;;33.50;99.90;;;;;;5029358;28;20109;-77
2023/07/12 05:46:20;;;;;;;17.13;10.73;;;34.20;99.90;;;;;;5021222;28;20137;-74
2023/07/12 05:48:48;;;;;;;13.68;9.95;;;34.90;99.90;;;;;;5017140;28;20053;-77
2023/07/12 05:51:15;;;;;;;13.38;10.55;;;35.80;99.90;;;;;;5015952;28;20502;-77
2023/07/12 05:53:43;;;;;;;13.57;10.18;;;36.70;99.90;;;;;;5013919;28;20061;-76
2023/07/12 05:56:10;;;;;;;13.85;10.55;;;37.50;99.90;;;;;;5013899;28;20104;-76
2023/07/12 05:58:39;;;;;;;15.57;10.07;;;36.90;99.90;;;;;;5013908;28;20528;-76
2023/07/12 06:01:06;;;;;;;12.32;11.02;;;36.60;99.90;;;;;;5012459;28;20038;-78
2023/07/12 06:03:34;;;;;;;16.73;11.50;;;36.10;99.90;;;;;;5012920;28;20042;-78
2023/07/12 06:06:06;;;;;;;12.40;10.02;;;36.00;99.90;;;;;;5018196;28;20110;-76
2023/07/12 06:08:34;;;;;;;13.25;10.20;;;36.00;99.90;;;;;;5023740;28;20060;-76
2023/07/12 06:11:01;;;;;;;11.35;10.25;;;35.70;99.90;;;;;;5023012;28;20042;-74
2023/07/12 06:13:29;;;;;;;15.10;11.32;;;35.00;99.90;;;;;;5014203;28;20159;-78
2023/07/12 06:15:58;;;;;;;12.55;10.75;;;34.90;99.90;;;;;;5028608;28;20111;-76
2023/07/12 06:18:26;;;;;;;14.35;11.30;;;34.60;99.90;;;;;;5012868;28;20050;-77
2023/07/12 06:20:56;;;;;;;14.30;10.00;;;34.30;99.90;;;;;;5011050;28;20050;-75
2023/07/12 06:23:24;;;;;;;16.48;11.45;;;33.40;99.90;;;;;;5027279;28;20042;-76
2023/07/12 06:25:52;;;;;;;11.98;9.95;;;33.50;99.90;;;;;;5012391;28;20057;-76
2023/07/12 06:28:20;;;;;;;13.75;10.73;;;33.20;99.90;;;;;;5013150;28;20401;-76
2023/07/12 06:30:47;;;;;;;15.52;11.40;;;32.70;99.90;;;;;;5012062;28;20466;-75
2023/07/12 06:33:16;;;;;;;17.52;12.38;;;33.50;99.90;;;;;;5024149;28;20460;-75
2023/07/12 06:35:43;;;;;;;17.60;11.45;;;32.50;99.90;;;;;;5031475;28;20515;-76
2023/07/12 06:38:11;;;;;;;12.32;10.15;;;32.40;99.90;;;;;;5047348;28;20053;-77
2023/07/12 06:40:39;;;;;;;12.75;11.45;;;32.70;99.90;;;;;;5031909;28;20421;-77
2023/07/12 06:43:06;;;;;;;14.18;10.60;;;31.90;99.90;;;;;;5046953;28;20046;-78
2023/07/12 06:45:34;;;;;;;12.88;10.88;;;32.20;99.90;;;;;;5031874;28;20038;-76
2023/07/12 06:48:01;;;;;;;14.25;10.93;;;32.30;99.90;;;;;;5031882;28;20509;-77
2023/07/12 06:50:30;;;;;;;18.50;12.18;;;32.30;99.90;;;;;;5032113;28;20033;-76
2023/07/12 06:52:57;;;;;;;13.57;10.93;;;32.00;99.90;;;;;;5031608;28;20045;-76
2023/07/12 06:55:25;;;;;;;13.55;11.48;;;31.60;99.90;;;;;;5031732;28;20067;-75
2023/07/12 06:57:52;;;;;;;14.27;10.75;;;30.80;99.90;;;;;;5031718;28;20045;-77
2023/07/12 07:00:20;;;;;;;14.48;11.63;;;30.10;99.90;;;;;;5031788;28;20082;-75
2023/07/12 07:02:48;;;;;;;15.00;11.25;;;30.10;99.90;;;;;;5017540;28;20046;-77
2023/07/12 07:05:15;;;;;;;13.15;11.40;;;30.20;99.90;;;;;;5015405;28;20056;-76
2023/07/12 07:07:44;;;;;;;14.98;12.68;;;30.50;99.90;;;;;;5019302;28;20093;-76
2023/07/12 07:10:11;;;;;;;13.15;9.75;;;31.10;99.90;;;;;;5019266;28;20050;-77
2023/07/12 07:12:39;;;;;;;15.95;10.93;;;31.60;99.90;;;;;;5018568;28;20053;-76
2023/07/12 07:15:07;;;;;;;13.68;10.75;;;32.00;99.90;;;;;;5017567;28;20053;-77
2023/07/12 07:17:35;;;;;;;13.23;10.70;;;31.90;99.90;;;;;;5014010;28;20124;-77
2023/07/12 07:20:03;;;;;;;10.55;9.23;;;32.10;99.90;;;;;;5013262;28;20038;-77
2023/07/12 07:22:30;;;;;;;11.00;9.70;;;32.10;99.90;;;;;;5028249;28;20042;-78
2023/07/12 07:24:59;;;;;;;14.55;10.75;;;32.00;99.90;;;;;;5012161;28;20096;-76
2023/07/12 07:27:27;;;;;;;12.48;11.13;;;32.20;99.90;;;;;;5012877;28;20049;-76
2023/07/12 07:29:54;;;;;;;10.93;9.15;;;31.90;99.90;;;;;;5012879;28;20101;-75
2023/07/12 07:32:22;;;;;;;16.30;10.23;;;31.80;99.90;;;;;;5032174;28;20224;-76
2023/07/12 07:34:49;;;;;;;16.42;9.65;;;32.10;99.90;;;;;;5035165;28;20052;-74
2023/07/12 07:37:17;;;;;;;12.88;9.93;;;31.80;99.90;;;;;;5032271;28;20053;-75
2023/07/12 07:39:44;;;;;;;13.00;9.40;;;32.00;99.90;;;;;;5032417;28;20107;-76
2023/07/12 07:42:13;;;;;;;15.10;9.77;;;31.70;99.90;;;;;;5032448;28;20042;-77
2023/07/12 07:44:40;;;;;;;12.57;9.20;;;31.30;99.90;;;;;;5037581;28;20060;-74
2023/07/12 07:47:08;;;;;;;15.07;9.50;;;31.50;99.90;;;;;;5038968;28;20068;-79
2023/07/12 07:49:38;;;;;;;13.13;9.45;;;31.60;99.90;;;;;;5041620;28;20120;-77
2023/07/12 07:52:07;;;;;;;13.15;8.90;;;31.80;99.90;;;;;;5040703;28;20049;-77
2023/07/12 07:54:35;;;;;;;12.50;9.27;;;32.10;99.90;;;;;;5038119;28;20111;-75
2023/07/12 07:57:03;;;;;;;12.70;9.93;;;32.20;99.90;;;;;;5019373;28;20038;-75
2023/07/12 07:59:32;;;;;;;11.68;10.00;;;32.00;99.90;;;;;;5036559;28;20037;-76
2023/07/12 08:02:00;;;;;;;15.25;9.93;;;32.00;99.90;;;;;;5038695;28;20473;-76
2023/07/12 08:04:28;;;;;;;16.95;12.35;;;32.20;99.90;;;;;;5037365;28;20301;-78
2023/07/12 08:06:56;;;;;;;15.55;12.20;;;32.50;99.90;;;;;;5035547;28;20064;-76
2023/07/12 08:09:23;;;;;;;15.52;13.68;;;32.50;99.90;;;;;;5034079;28;20417;-76
2023/07/12 08:11:51;;;;;;;12.90;9.52;;;32.70;99.90;;;;;;5030638;28;20076;-78
2023/07/12 08:14:20;;;;;;;14.77;10.02;;;32.90;99.90;;;;;;5033857;28;20045;-78
2023/07/12 08:16:49;;;;;;;13.40;10.23;;;33.10;99.90;;;;;;5033976;28;20436;-76
2023/07/12 08:19:17;;;;;;;16.58;9.80;;;33.30;99.90;;;;;;5016949;28;20081;-76
2023/07/12 08:21:44;;;;;;;14.82;11.38;;;33.30;99.90;;;;;;5015731;28;20042;-75
2023/07/12 08:24:13;;;;;;;15.65;10.98;;;33.30;99.90;;;;;;5012363;28;20049;-77
2023/07/12 08:26:40;;;;;;;14.57;10.93;;;33.50;99.90;;;;;;5010533;28;20038;-76
2023/07/12 08:29:08;;;;;;;15.70;11.55;;;33.70;99.90;;;;;;5010699;28;20049;-76
2023/07/12 08:31:35;;;;;;;15.38;11.77;;;33.70;99.90;;;;;;5015902;28;20042;-73
2023/07/12 08:34:05;;;;;;;16.13;10.50;;;33.80;99.90;;;;;;5014390;28;20064;-76
2023/07/12 08:36:33;;;;;;;14.35;10.18;;;33.90;99.90;;;;;;5012542;28;20050;-77
2023/07/12 08:39:00;;;;;;;16.55;11.65;;;33.80;99.90;;;;;;5010698;28;20399;-78
2023/07/12 08:41:29;;;;;;;18.95;11.85;;;33.80;99.90;;;;;;5010710;28;20042;-74
2023/07/12 08:43:57;;;;;;;15.98;10.35;;;34.00;99.90;;;;;;5009111;28;20052;-76
2023/07/12 08:46:30;;;;;;;15.18;11.00;;;34.00;99.90;;;;;;5011081;28;20482;-75
2023/07/12 08:49:01;;;;;;;20.67;12.95;;;34.10;99.90;;;;;;5010149;28;20038;-75
2023/07/12 08:51:32;;;;;;;18.27;12.82;;;34.20;99.90;;;;;;5009735;28;20045;-76
2023/07/12 08:54:00;;;;;;;21.30;16.45;;;34.50;99.90;;;;;;5009930;28;20072;-76
2023/07/12 08:56:28;;;;;;;18.88;9.57;;;34.40;99.90;;;;;;5024979;28;20038;-75
2023/07/12 08:58:56;;;;;;;17.67;11.60;;;34.40;99.90;;;;;;5024968;28;20053;-75
2023/07/12 09:01:42;;;;;;;15.48;10.75;;;34.20;99.90;;;;;;5010243;28;20034;-76
2023/07/12 09:04:32;;;;;;;21.00;11.20;;;34.20;99.90;;;;;;5009637;28;20042;-78
2023/07/12 09:07:02;;;;;;;18.60;12.00;;;34.00;99.90;;;;;;5007033;28;20119;-76
2023/07/12 09:09:35;;;;;;;24.38;12.40;;;34.20;99.90;;;;;;5014033;28;20125;-74
2023/07/12 09:12:07;;;;;;;19.08;11.65;;;34.20;99.90;;;;;;5010668;28;20512;-75
2023/07/12 09:14:37;;;;;;;17.27;12.30;;;34.20;99.90;;;;;;5011646;28;20536;-75
2023/07/12 09:17:21;;;;;;;16.30;10.02;;;34.40;99.90;;;;;;5012396;28;20048;-77
2023/07/12 09:19:50;;;;;;;19.23;10.93;;;34.20;99.90;;;;;;5013811;28;20038;-76
2023/07/12 09:22:20;;;;;;;18.70;12.13;;;34.00;99.90;;;;;;5012266;28;20048;-75
2023/07/12 09:24:53;;;;;;;16.08;9.40;;;34.10;99.90;;;;;;5013283;28;20040;-78
2023/07/12 09:27:22;;;;;;;18.52;9.05;;;34.20;99.90;;;;;;5029959;28;20048;-78
2023/07/12 09:29:49;;;;;;;16.58;8.88;;;34.40;99.90;;;;;;5017629;28;20034;-74
2023/07/12 09:32:21;;;;;;;16.13;10.80;;;34.50;99.90;;;;;;5030640;28;20045;-78
2023/07/12 09:34:49;;;;;;;16.15;10.18;;;34.60;99.90;;;;;;5014424;28;20269;-75
2023/07/12 09:37:20;;;;;;;17.92;11.02;;;34.60;99.90;;;;;;5011503;28;20050;-77
2023/07/12 09:39:54;;;;;;;16.48;9.85;;;34.40;99.90;;;;;;5009126;28;20563;-76
2023/07/12 09:42:22;;;;;;;15.27;8.87;;;34.40;99.90;;;;;;5009612;28;20077;-78
2023/07/12 09:44:50;;;;;;;17.30;9.38;;;34.60;99.90;;;;;;5040491;28;20289;-77
2023/07/12 09:47:37;;;;;;;18.20;8.90;;;34.70;99.90;;;;;;5029489;28;20038;-74
2023/07/12 09:50:15;;;;;;;17.08;12.00;;;34.60;99.90;;;;;;5028795;28;20131;-76
2023/07/12 09:52:57;;;;;;;15.95;11.05;;;34.70;99.90;;;;;;5029140;28;20397;-75
2023/07/12 09:55:30;;;;;;;17.42;10.93;;;34.70;99.90;;;;;;5031584;28;20056;-78
2023/07/12 09:58:06;;;;;;;19.02;11.55;;;34.90;99.90;;;;;;5031630;28;20087;-77
2023/07/12 10:00:41;;;;;;;17.02;11.30;;;34.80;99.90;;;;;;5032531;28;20053;-76
2023/07/12 10:03:16;;;;;;;23.65;11.55;;;34.70;99.90;;;;;;5014106;28;20413;-77
2023/07/12 10:05:51;;;;;;;17.67;10.93;;;34.90;99.90;;;;;;5028273;28;20567;-77
2023/07/12 10:08:22;;;;;;;19.67;10.07;;;35.00;99.90;;;;;;5011768;28;20112;-76
2023/07/12 10:10:54;;;;;;;19.60;9.65;;;35.30;99.90;;;;;;5013177;28;20486;-78
2023/07/12 10:13:34;;;;;;;18.10;11.23;;;35.40;99.90;;;;;;5028678;28;20046;-74
2023/07/12 10:16:04;;;;;;;17.15;9.52;;;35.20;99.90;;;;;;5013638;28;20042;-78
2023/07/12 10:18:35;;;;;;;21.23;11.93;;;34.70;99.90;;;;;;5013476;28;20042;-78
2023/07/12 10:21:04;;;;;;;15.02;9.77;;;35.00;99.90;;;;;;5015459;28;20136;-76
2023/07/12 10:23:46;;;;;;;21.00;12.27;;;35.10;99.90;;;;;;5033068;28;20036;-77
2023/07/12 10:26:15;;;;;;;15.05;10.68;;;35.30;99.90;;;;;;5033309;28;20486;-78
2023/07/12 10:28:47;;;;;;;16.70;9.50;;;35.50;99.90;;;;;;5029139;28;20131;-77
2023/07/12 10:31:28;;;;;;;16.25;9.13;;;35.70;99.90;;;;;;5015786;28;20624;-74
2023/07/12 10:34:06;;;;;;;18.75;9.35;;;36.00;99.90;;;;;;5016428;28;20568;-75
2023/07/12 10:36:36;;;;;;;14.13;9.93;;;36.50;99.90;;;;;;5040498;28;20048;-77
2023/07/12 10:39:07;;;;;;;15.82;9.45;;;36.70;99.90;;;;;;5025470;28;20081;-75
2023/07/12 10:41:44;;;;;;;15.23;9.48;;;36.60;99.90;;;;;;5018045;28;20071;-76
2023/07/12 10:44:18;;;;;;;15.75;9.85;;;36.30;99.90;;;;;;5029995;28;20145;-75
2023/07/12 10:46:50;;;;;;;12.50;8.82;;;36.00;99.90;;;;;;5043957;28;20045;-76
2023/07/12 10:49:21;;;;;;;13.75;10.32;;;35.80;99.90;;;;;;5038737;28;20053;-78
2023/07/12 10:52:05;;;;;;;12.18;9.20;;;35.70;99.90;;;;;;5031760;28;20049;-77
2023/07/12 10:54:51;;;;;;;12.68;8.40;;;35.90;99.90;;;;;;5033537;28;20049;-76
2023/07/12 10:57:28;;;;;;;12.55;9.13;;;36.00;99.90;;;;;;5035495;28;20513;-75
2023/07/12 11:00:05;;;;;;;17.83;10.98;;;36.30;99.90;;;;;;5031578;28;20179;-78
2023/07/12 11:02:45;;;;;;;17.33;10.45;;;36.70;99.90;;;;;;5016745;28;20065;-76
2023/07/12 11:05:38;;;;;;;16.27;9.00;;;36.70;99.90;;;;;;5011623;28;20044;-78
2023/07/12 11:08:06;;;;;;;15.43;8.60;;;36.70;99.90;;;;;;5010773;28;20513;-78
2023/07/12 11:10:38;;;;;;;14.90;9.27;;;36.50;99.90;;;;;;5011481;28;20053;-76
2023/07/12 11:13:13;;;;;;;14.07;10.40;;;36.40;99.90;;;;;;5011919;28;20046;-75
2023/07/12 11:15:51;;;;;;;16.55;9.07;;;36.10;99.90;;;;;;5010773;28;20045;-78
2023/07/12 11:18:24;;;;;;;13.63;9.63;;;35.90;99.90;;;;;;5024514;28;20049;-77
2023/07/12 11:21:00;;;;;;;13.82;9.52;;;36.00;99.90;;;;;;5030822;28;20048;-76
2023/07/12 11:23:30;;;;;;;14.32;8.50;;;36.40;99.90;;;;;;5031525;28;20042;-77
2023/07/12 11:26:19;;;;;;;14.45;9.52;;;36.80;99.90;;;;;;5031092;28;20037;-78
2023/07/12 11:28:46;;;;;;;13.85;9.13;;;36.90;99.90;;;;;;5025450;28;20325;-77
2023/07/12 11:31:29;;;;;;;12.48;9.23;;;36.90;99.90;;;;;;5025563;28;20065;-77
2023/07/12 11:34:05;;;;;;;16.85;10.13;;;37.20;99.90;;;;;;5010870;28;20077;-79
2023/07/12 11:36:35;;;;;;;14.50;11.20;;;37.30;99.90;;;;;;5010386;28;20046;-78
2023/07/12 11:39:10;;;;;;;13.98;10.25;;;37.70;99.90;;;;;;5010542;28;20418;-78
2023/07/12 11:41:41;;;;;;;;;;;38.00;99.90;;;;;;5009341;28;20442;-77
2023/07/12 11:44:17;;;;;;;16.27;10.07;;;38.10;99.90;;;;;;5021036;28;19944;-76
2023/07/12 11:46:47;;;;;;;18.75;10.35;;;37.70;99.90;;;;;;5031306;28;20125;-76
2023/07/12 11:49:18;;;;;;;18.85;11.45;;;37.70;99.90;;;;;;5030960;28;20065;-78
2023/07/12 11:51:49;;;;;;;13.13;9.40;;;37.90;99.90;;;;;;5029941;28;20408;-77
2023/07/12 11:54:22;;;;;;;16.98;9.82;;;38.00;99.90;;;;;;5028811;28;20057;-77
2023/07/12 11:56:53;;;;;;;14.77;9.90;;;37.90;99.90;;;;;;5030089;28;20041;-76
2023/07/12 11:59:24;;;;;;;14.52;9.10;;;37.70;99.90;;;;;;5030322;28;20053;-77
2023/07/12 12:01:53;;;;;;;14.10;9.27;;;37.50;99.90;;;;;;5021900;28;20038;-77
2023/07/12 12:04:24;;;;;;;15.10;10.45;;;37.40;99.90;;;;;;5025632;28;20505;-77
2023/07/12 12:06:55;;;;;;;15.82;9.95;;;37.40;99.90;;;;;;5010301;28;20497;-77
2023/07/12 12:09:26;;;;;;;15.07;9.75;;;37.20;99.90;;;;;;5010581;28;20075;-77
2023/07/12 12:11:56;;;;;;;17.10;10.98;;;37.20;99.90;;;;;;5010270;28;20494;-77
2023/07/12 12:14:28;;;;;;;13.50;9.75;;;37.30;99.90;;;;;;5021892;28;20493;-77
2023/07/12 12:16:57;;;;;;;12.38;9.93;;;37.20;99.90;;;;;;5030974;28;20400;-77
2023/07/12 12:19:28;;;;;;;18.75;10.00;;;37.00;99.90;;;;;;5030420;28;20052;-78
2023/07/12 12:22:02;;;;;;;14.65;9.55;;;37.10;99.90;;;;;;5040003;28;20065;-78
2023/07/12 12:24:41;;;;;;;16.08;10.18;;;36.90;99.90;;;;;;5032589;28;20046;-76
2023/07/12 12:27:18;;;;;;;12.20;9.90;;;36.60;99.90;;;;;;5054705;28;20050;-74
2023/07/12 12:29:46;;;;;;;14.85;10.27;;;36.50;99.90;;;;;;5018680;28;20042;-77
2023/07/12 12:32:16;;;;;;;12.13;9.27;;;36.40;99.90;;;;;;5010613;28;20045;-77
2023/07/12 12:34:47;;;;;;;14.30;10.55;;;36.50;99.90;;;;;;5010017;28;20038;-75
2023/07/12 12:37:20;;;;;;;17.65;11.48;;;36.50;99.90;;;;;;5009874;28;20054;-77
2023/07/12 12:39:57;;;;;;;13.25;10.07;;;36.20;99.90;;;;;;5009132;28;20510;-78
2023/07/12 12:42:28;;;;;;;15.85;10.55;;;35.90;99.90;;;;;;5009899;28;20468;-77
2023/07/12 12:44:56;;;;;;;13.82;9.43;;;35.80;99.90;;;;;;5026486;28;20563;-77